Time;durP1;ratioP1;P1;durP2;ratioP2;P2;SDS_P1;SDS_P2;PMS_P1;PMS_P2;Temp;Humidity;BMP_temperature;BMP_pressure;BME280_temperature;BME280_humidity;BME280_pressure;Samples;Min_cycle;Max_cycle;Signal;HPM_P1;HPM_P2
2022/01/21 00:02:09;;;;;;;8.27;3.53;;;-3.50;99.90;;;-3.58;100.00;96817.56;4981466;28;129878;-76
2022/01/21 00:04:37;;;;;;;10.32;3.22;;;-3.40;99.90;;;-3.72;100.00;96826.22;4983695;28;130459;-76
2022/01/21 00:07:08;;;;;;;5.90;2.97;;;-3.40;99.90;;;-3.62;100.00;96815.47;4981761;28;125655;-75
2022/01/21 00:09:37;;;;;;;11.25;3.40;;;-3.40;99.90;;;-3.52;100.00;96816.41;4985330;28;125091;-75
2022/01/21 00:12:06;;;;;;;9.07;3.50;;;-3.40;99.90;;;-3.57;100.00;96800.59;4982026;28;129467;-75
2022/01/21 00:14:40;;;;;;;7.07;3.40;;;-3.40;99.90;;;-3.56;100.00;96802.16;4983282;28;129387;-75
2022/01/21 00:17:09;;;;;;;7.35;3.75;;;-3.40;99.90;;;-3.47;100.00;96800.47;4981003;28;126955;-75
2022/01/21 00:19:41;;;;;;;4.90;2.78;;;-3.30;99.90;;;-3.47;100.00;96801.25;4984279;28;126095;-76
2022/01/21 00:30:27;;;;;;;6.97;3.53;;;-3.20;99.90;;;-3.32;100.00;96788.84;4950799;28;126133;-76
2022/01/21 00:32:56;;;;;;;6.40;3.30;;;-3.20;99.90;;;-3.35;100.00;96779.59;4979767;28;130078;-76
2022/01/21 00:35:27;;;;;;;7.15;3.65;;;-3.20;99.90;;;-3.40;100.00;96777.00;4966348;28;129104;-76
2022/01/21 00:37:58;;;;;;;5.60;3.20;;;-3.20;99.90;;;-3.22;100.00;96769.34;4966635;28;124334;-77
2022/01/21 00:40:26;;;;;;;6.90;3.70;;;-3.10;99.90;;;-3.22;100.00;96769.34;4980027;28;125453;-75
2022/01/21 00:43:11;;;;;;;6.07;3.33;;;-3.10;99.90;;;-3.17;100.00;96769.25;4982530;28;129762;-75
2022/01/21 00:45:39;;;;;;;7.78;3.25;;;-3.10;99.90;;;-3.08;100.00;96765.66;4980868;28;129790;-75
2022/01/21 00:48:09;;;;;;;5.47;2.92;;;-3.10;99.90;;;-3.07;100.00;96761.13;4980760;28;126304;-75
2022/01/21 00:50:38;;;;;;;5.90;3.40;;;-3.00;99.90;;;-3.12;100.00;96756.69;4981464;28;125482;-75
2022/01/21 00:53:08;;;;;;;5.97;3.17;;;-3.00;99.90;;;-3.04;100.00;96749.94;4965350;28;128355;-75
2022/01/21 00:55:37;;;;;;;7.68;3.08;;;-3.00;99.90;;;-2.93;100.00;96755.88;4982466;28;129413;-76
2022/01/21 00:58:06;;;;;;;5.55;2.80;;;-2.90;99.90;;;-2.87;100.00;96760.00;4980484;28;126326;-77
2022/01/21 01:00:38;;;;;;;5.63;2.95;;;-2.90;99.90;;;-2.94;100.00;96749.78;4979730;28;125538;-75
2022/01/21 01:03:09;;;;;;;4.80;2.58;;;-2.80;99.90;;;-2.82;100.00;96746.69;4980751;28;129902;-76
2022/01/21 01:05:41;;;;;;;6.80;2.72;;;-2.90;99.90;;;-2.84;100.00;96742.72;4980341;28;129502;-77
2022/01/21 01:08:11;;;;;;;4.85;2.80;;;-2.80;99.90;;;-2.81;100.00;96734.97;4982508;28;126016;-76
2022/01/21 01:10:48;;;;;;;4.63;2.72;;;-2.70;99.90;;;-2.78;100.00;96746.88;4982577;28;126556;-76
2022/01/21 01:21:37;;;;;;;3.72;2.00;;;-2.60;99.90;;;-2.59;100.00;96749.47;4982287;28;124793;-75
2022/01/21 01:29:36;;;;;;;4.00;1.83;;;-2.50;99.90;;;-2.58;100.00;96725.25;4981260;28;126353;-75
2022/01/21 01:32:08;;;;;;;2.85;1.83;;;-2.50;99.90;;;-2.50;100.00;96733.66;4980472;28;125446;-74
2022/01/21 01:34:36;;;;;;;2.83;1.60;;;-2.40;99.90;;;-2.46;100.00;96732.75;4978700;28;130696;-75
2022/01/21 01:37:13;;;;;;;4.20;1.58;;;-2.40;99.90;;;-2.43;100.00;96734.03;4982169;28;130152;-75
2022/01/21 01:39:45;;;;;;;2.73;1.83;;;-2.40;99.90;;;-2.38;100.00;96720.66;4999144;28;124553;-75
2022/01/21 01:50:38;;;;;;;3.30;1.58;;;-2.30;99.90;;;-2.40;100.00;96720.16;4980849;28;125883;-75
2022/01/21 01:53:08;;;;;;;3.80;1.60;;;-2.30;99.90;;;-2.29;100.00;96726.06;4982423;28;124939;-75
2022/01/21 01:55:39;;;;;;;2.92;1.60;;;-2.30;99.90;;;-2.29;100.00;96737.50;4979968;28;130273;-75
2022/01/21 01:58:12;;;;;;;2.28;1.40;;;-2.30;99.90;;;-2.29;100.00;96720.75;4984291;28;102531;-75
2022/01/21 02:00:41;;;;;;;3.58;1.50;;;-2.30;99.90;;;-2.29;100.00;96726.88;4981648;28;126295;-75
2022/01/21 02:03:14;;;;;;;3.90;1.45;;;-2.30;99.90;;;-2.25;100.00;96721.75;4981529;28;126293;-76
2022/01/21 02:05:43;;;;;;;2.42;1.30;;;-2.30;99.90;;;-2.37;100.00;96719.56;4980449;28;129831;-75
2022/01/21 02:08:13;;;;;;;4.13;1.70;;;-2.30;99.90;;;-2.37;100.00;96712.41;4981758;28;129403;-76
2022/01/21 02:10:43;;;;;;;3.10;1.35;;;-2.30;99.90;;;-2.26;100.00;96720.16;4978338;28;125385;-76
2022/01/21 02:13:23;;;;;;;3.05;1.42;;;-2.30;99.90;;;-2.31;100.00;96709.63;4978664;28;125379;-76
2022/01/21 02:16:06;;;;;;;6.10;1.38;;;-2.30;99.90;;;-2.33;100.00;96698.53;4981745;28;130012;-76
2022/01/21 02:21:39;;;;;;;5.07;1.20;;;-2.30;99.90;;;-2.28;100.00;96701.84;4981587;28;126221;-76
2022/01/21 02:24:14;;;;;;;3.05;1.20;;;-2.20;99.90;;;-2.20;100.00;96692.41;4998145;28;125288;-75
2022/01/21 02:26:43;;;;;;;3.72;1.30;;;-2.20;99.90;;;-2.15;100.00;96699.50;4997739;28;129061;-76
2022/01/21 02:29:15;;;;;;;2.38;1.45;;;-2.20;99.90;;;-2.25;100.00;96700.50;4979545;28;129790;-76
2022/01/21 02:31:43;;;;;;;2.80;1.50;;;-2.20;99.90;;;-2.24;100.00;96697.53;4978451;28;125948;-76
2022/01/21 02:34:26;;;;;;;3.50;1.30;;;-2.20;99.90;;;-2.18;100.00;96690.25;4964883;28;124837;-76
2022/01/21 02:36:56;;;;;;;2.50;1.50;;;-2.20;99.90;;;-2.17;100.00;96689.97;4977655;28;129573;-76
2022/01/21 02:39:25;;;;;;;2.15;1.20;;;-2.20;99.90;;;-2.19;100.00;96688.69;4980895;28;129679;-76
2022/01/21 02:42:16;;;;;;;2.28;1.27;;;-2.20;99.90;;;-2.23;100.00;96672.56;4964915;28;126108;-75
2022/01/21 02:44:48;;;;;;;2.42;1.25;;;-2.20;99.90;;;-2.14;100.00;96677.16;4981526;28;125956;-75
2022/01/21 02:47:19;;;;;;;4.07;1.42;;;-2.10;99.90;;;-2.14;100.00;96679.81;4981060;28;129480;-76
2022/01/21 02:49:54;;;;;;;2.80;1.35;;;-2.10;99.90;;;-2.12;100.00;96680.28;4964591;28;128904;-76
2022/01/21 02:52:28;;;;;;;1.63;1.10;;;-2.10;99.90;;;-2.17;100.00;96679.34;4980552;28;126375;-76
2022/01/21 02:54:57;;;;;;;1.17;1.00;;;-2.20;99.90;;;-2.18;100.00;96677.75;4980611;28;126532;-74
2022/01/21 02:57:27;;;;;;;3.72;0.90;;;-2.10;99.90;;;-2.13;100.00;96681.41;4980598;28;129561;-76
2022/01/21 02:59:57;;;;;;;0.80;0.80;;;-2.10;99.90;;;-2.19;100.00;96675.38;4979491;28;129962;-76
2022/01/21 03:02:26;;;;;;;1.58;0.90;;;-2.10;99.90;;;-2.22;100.00;96679.41;4979870;28;125319;-75
2022/01/21 03:05:03;;;;;;;1.98;1.17;;;-2.10;99.90;;;-2.19;100.00;96675.38;4979944;28;125210;-75
2022/01/21 03:07:38;;;;;;;2.22;1.00;;;-2.10;99.90;;;-2.12;100.00;96665.16;4977900;28;129826;-75
2022/01/21 03:10:07;;;;;;;1.52;1.00;;;-2.10;99.90;;;-2.12;100.00;96672.31;4978421;28;130011;-75
2022/01/21 03:12:36;;;;;;;2.92;1.00;;;-2.10;99.90;;;-2.05;100.00;96678.03;4979733;28;125985;-75
2022/01/21 03:15:06;;;;;;;1.95;1.13;;;-2.10;99.90;;;-2.13;100.00;96670.78;4979973;28;124819;-75
2022/01/21 03:17:35;;;;;;;3.10;1.02;;;-2.00;99.90;;;-2.11;100.00;96679.22;4982237;28;129552;-76
2022/01/21 03:20:09;;;;;;;2.30;1.00;;;-2.00;99.90;;;-2.07;100.00;96677.53;4981244;28;129523;-76
2022/01/21 03:22:40;;;;;;;1.95;0.90;;;-2.00;99.90;;;-2.01;100.00;96674.47;4979238;28;125578;-76
2022/01/21 03:25:11;;;;;;;3.35;0.90;;;-2.00;99.90;;;-1.94;99.97;96663.44;4981374;28;125444;-75
2022/01/21 03:27:40;;;;;;;1.90;1.00;;;-2.00;99.90;;;-1.95;98.92;96661.84;4977252;28;129992;-75
2022/01/21 03:30:11;;;;;;;5.53;0.93;;;-1.90;99.90;;;-1.98;99.15;96667.75;4980771;28;129359;-75
2022/01/21 03:32:48;;;;;;;2.30;1.10;;;-2.00;99.90;;;-1.94;98.95;96667.97;4964164;28;124641;-76
2022/01/21 03:35:24;;;;;;;1.35;0.80;;;-1.90;99.90;;;-1.92;98.85;96663.91;4964770;28;125192;-76
2022/01/21 03:37:54;;;;;;;2.75;1.17;;;-1.90;99.90;;;-1.92;99.28;96679.84;4980501;28;129470;-76
2022/01/21 03:40:26;;;;;;;2.45;0.95;;;-1.90;99.90;;;-1.98;100.00;96670.41;4980579;28;129398;-75
2022/01/21 03:42:54;;;;;;;4.07;1.33;;;-1.90;99.90;;;-2.06;100.00;96676.44;4963690;28;125990;-75
2022/01/21 03:45:23;;;;;;;1.00;0.85;;;-2.00;99.90;;;-2.04;100.00;96663.63;4980717;28;125967;-76
2022/01/21 03:47:53;;;;;;;1.48;1.00;;;-2.00;99.90;;;-2.13;100.00;96673.44;4983450;28;129589;-76
2022/01/21 03:50:31;;;;;;;2.92;1.05;;;-2.00;99.90;;;-2.14;100.00;96679.81;4983361;28;129387;-75
2022/01/21 03:53:02;;;;;;;4.53;1.40;;;-2.10;99.90;;;-2.10;100.00;96675.47;4983605;28;125097;-76
2022/01/21 03:55:34;;;;;;;3.80;1.10;;;-2.10;99.90;;;-2.21;100.00;96665.06;4981075;28;125685;-76
2022/01/21 03:58:10;;;;;;;3.13;1.10;;;-2.10;99.90;;;-2.21;100.00;96673.03;4983732;28;129175;-76
2022/01/21 04:00:47;;;;;;;1.75;1.05;;;-2.10;99.90;;;-2.25;100.00;96685.31;4967255;28;128666;-76
2022/01/21 04:03:16;;;;;;;3.28;1.30;;;-2.20;99.90;;;-2.24;100.00;96670.97;4967336;28;125125;-75
2022/01/21 04:05:46;;;;;;;2.72;1.00;;;-2.20;99.90;;;-2.28;100.00;96669.97;4983719;28;125619;-75
2022/01/21 04:08:18;;;;;;;2.28;1.20;;;-2.20;99.90;;;-2.20;100.00;96676.47;4966603;28;128991;-76
2022/01/21 04:10:57;;;;;;;1.77;1.02;;;-2.20;99.90;;;-2.24;100.00;96686.91;4966912;28;130092;-74
2022/01/21 04:13:26;;;;;;;3.33;1.00;;;-2.20;99.90;;;-2.17;100.00;96682.00;4967264;28;124961;-74
2022/01/21 04:16:01;;;;;;;2.20;1.20;;;-2.20;99.90;;;-2.32;100.00;96684.94;4983541;28;126814;-74
2022/01/21 04:18:33;;;;;;;1.65;1.10;;;-2.20;99.90;;;-2.39;100.00;96690.66;4966522;28;129231;-74
2022/01/21 04:21:04;;;;;;;6.97;1.00;;;-2.30;99.90;;;-2.51;100.00;96676.28;4980026;28;130588;-74
2022/01/21 04:23:36;;;;;;;3.67;1.23;;;-2.30;99.90;;;-2.59;100.00;96691.81;4950881;28;124302;-75
2022/01/21 04:26:06;;;;;;;2.45;0.95;;;-2.30;99.90;;;-2.63;100.00;96706.78;4978311;28;126058;-75
2022/01/21 04:28:35;;;;;;;2.63;0.93;;;-2.30;99.90;;;-2.51;100.00;96692.22;4965633;28;130025;-76
2022/01/21 04:31:06;;;;;;;2.10;0.93;;;-2.40;99.90;;;-2.47;100.00;96682.59;4979808;28;129680;-75
2022/01/21 04:33:44;;;;;;;3.13;1.10;;;-2.30;99.90;;;-2.50;100.00;96699.91;4965847;28;125651;-75
2022/01/21 04:36:13;;;;;;;4.00;1.75;;;-2.30;99.90;;;-2.47;100.00;96698.53;4981272;28;125968;-74
2022/01/21 04:38:42;;;;;;;5.45;2.10;;;-2.40;99.90;;;-2.41;100.00;96708.75;4966080;28;129039;-75
2022/01/21 04:41:34;;;;;;;2.85;1.25;;;-2.30;99.90;;;-2.50;100.00;96678.66;4982443;28;130080;-74
2022/01/21 04:49:37;;;;;;;2.60;1.25;;;-2.40;99.90;;;-2.41;100.00;96707.97;4959696;28;129167;-75
2022/01/21 04:52:09;;;;;;;1.75;1.35;;;-2.40;99.90;;;-2.44;100.00;96703.25;4981322;28;129762;-76
2022/01/21 04:55:14;;;;;;;2.25;1.30;;;-2.30;99.90;;;-2.32;100.00;96716.03;4977813;28;125391;-76
2022/01/21 04:57:43;;;;;;;2.95;1.40;;;-2.30;99.90;;;-2.32;100.00;96706.22;4981908;28;124879;-75
2022/01/21 05:00:13;;;;;;;2.38;1.45;;;-2.30;99.90;;;-2.32;100.00;96714.19;4978578;28;130147;-75
2022/01/21 05:02:43;;;;;;;4.75;1.95;;;-2.30;99.90;;;-2.32;100.00;96700.88;4978874;28;129956;-76
2022/01/21 05:05:15;;;;;;;1.52;1.10;;;-2.30;99.90;;;-2.37;100.00;96715.06;4999034;28;124962;-76
2022/01/21 05:07:48;;;;;;;5.07;1.90;;;-2.30;99.90;;;-2.30;100.00;96704.03;4982689;28;125076;-79
2022/01/21 05:10:23;;;;;;;5.13;1.83;;;-2.30;99.90;;;-2.27;100.00;96714.06;4996406;28;131000;-76
2022/01/21 05:12:59;;;;;;;13.98;1.88;;;-2.30;99.90;;;-2.30;100.00;96709.34;4998269;28;129573;-78
2022/01/21 05:15:42;;;;;;;3.47;1.57;;;-2.30;99.90;;;-2.29;100.00;96712.78;4999861;28;126329;-78
2022/01/21 05:18:11;;;;;;;6.03;2.17;;;-2.30;99.90;;;-2.26;100.00;96705.03;4997627;28;125040;-78
2022/01/21 05:20:56;;;;;;;3.97;1.70;;;-2.30;99.90;;;-2.26;100.00;96698.91;4983152;28;131180;-79
2022/01/21 05:23:45;;;;;;;4.75;1.60;;;-2.30;99.90;;;-2.30;100.00;96704.03;4980379;28;129048;-82
2022/01/21 05:26:15;;;;;;;6.63;2.33;;;-2.30;99.90;;;-2.30;100.00;96725.28;4997964;28;125522;-77
2022/01/21 05:28:44;;;;;;;3.55;1.67;;;-2.30;99.90;;;-2.31;100.00;96718.38;4964732;28;125215;-78
2022/01/21 05:31:37;;;;;;;5.55;1.90;;;-2.30;99.90;;;-2.39;100.00;96748.31;4980249;28;130378;-77
2022/01/21 05:34:26;;;;;;;4.50;2.15;;;-2.30;99.90;;;-2.34;100.00;96724.28;4961170;28;129794;-76
2022/01/21 05:37:24;;;;;;;10.85;5.10;;;-2.30;99.90;;;-2.43;100.00;96731.38;4974024;28;125859;-76
2022/01/21 05:40:13;;;;;;;5.18;2.78;;;-2.30;99.90;;;-2.35;100.00;96733.34;4998660;28;125590;-77
2022/01/21 05:42:59;;;;;;;9.70;4.47;;;-2.30;99.90;;;-2.35;100.00;96725.38;4981097;28;129936;-77
2022/01/21 05:48:48;;;;;;;3.00;1.77;;;-2.30;99.90;;;-2.35;100.00;96739.44;4982457;28;125226;-77
2022/01/21 05:51:38;;;;;;;4.20;1.75;;;-2.30;99.90;;;-2.24;100.00;96748.00;4980317;28;125050;-77
2022/01/21 05:54:25;;;;;;;4.25;1.80;;;-2.30;99.90;;;-2.28;100.00;96748.91;4978541;28;129828;-77
2022/01/21 05:57:06;;;;;;;5.50;2.97;;;-2.30;99.90;;;-2.28;100.00;96760.31;4981417;28;129266;-78
2022/01/21 05:59:37;;;;;;;9.82;3.00;;;-2.30;99.90;;;-2.22;100.00;96748.50;5002265;28;125694;-78
2022/01/21 06:02:07;;;;;;;4.30;1.58;;;-2.30;99.90;;;-2.24;100.00;96734.72;4982292;28;125247;-77
2022/01/21 06:04:39;;;;;;;4.93;2.63;;;-2.30;99.90;;;-2.26;100.00;96763.47;4998459;28;129357;-77
2022/01/21 06:07:08;;;;;;;3.70;1.75;;;-2.30;99.90;;;-2.24;100.00;96766.63;4964206;28;129124;-76
2022/01/21 06:09:37;;;;;;;6.72;2.40;;;-2.30;99.90;;;-2.24;100.00;96758.66;4979009;28;125310;-76
2022/01/21 06:12:10;;;;;;;7.80;4.35;;;-2.30;99.90;;;-2.30;100.00;96757.16;4981897;28;124244;-76
2022/01/21 06:14:44;;;;;;;6.75;3.83;;;-2.30;99.90;;;-2.31;100.00;96766.22;4994333;28;129596;-76
2022/01/21 06:17:14;;;;;;;6.97;2.67;;;-2.30;99.90;;;-2.27;100.00;96761.88;4977916;28;129849;-77
2022/01/21 06:19:43;;;;;;;11.35;4.95;;;-2.30;99.90;;;-2.20;100.00;96774.78;4981167;28;125050;-77
2022/01/21 06:22:12;;;;;;;9.23;3.53;;;-2.30;99.90;;;-2.22;100.00;96769.75;4979296;28;126535;-78
2022/01/21 06:24:41;;;;;;;2.83;1.50;;;-2.30;99.90;;;-2.21;100.00;96786.50;4978994;28;130493;-77
2022/01/21 06:27:16;;;;;;;3.33;1.90;;;-2.30;99.90;;;-2.18;99.81;96781.38;4979256;28;130345;-77
2022/01/21 06:29:46;;;;;;;5.45;2.53;;;-2.30;99.90;;;-2.15;99.53;96781.88;4979608;28;125775;-77
2022/01/21 06:32:14;;;;;;;16.95;6.47;;;-2.20;99.90;;;-2.13;99.78;96783.16;4979607;28;125379;-77
2022/01/21 06:34:47;;;;;;;13.73;5.00;;;-2.30;99.90;;;-2.20;99.92;96794.19;4980872;28;129535;-75
2022/01/21 06:37:16;;;;;;;14.98;7.25;;;-2.20;99.90;;;-2.18;100.00;96792.00;4979091;28;129319;-75
2022/01/21 06:39:44;;;;;;;4.28;1.70;;;-2.20;99.90;;;-2.22;100.00;96788.34;4980560;28;125150;-75
2022/01/21 06:42:14;;;;;;;5.13;1.60;;;-2.20;99.90;;;-2.13;99.88;96798.31;4980874;28;124516;-76
2022/01/21 06:44:43;;;;;;;4.97;1.80;;;-2.20;99.90;;;-2.17;100.00;96787.47;4996768;28;129542;-75
2022/01/21 06:47:13;;;;;;;3.90;1.63;;;-2.20;99.90;;;-2.09;99.42;96801.94;4985164;28;129615;-76
2022/01/21 06:49:42;;;;;;;5.32;2.03;;;-2.20;99.90;;;-1.97;99.36;96796.16;4983125;28;125786;-76
2022/01/21 06:52:11;;;;;;;2.47;1.40;;;-2.20;99.90;;;-2.02;98.84;96795.16;4981336;28;124867;-75
2022/01/21 06:54:39;;;;;;;3.78;1.70;;;-2.20;99.90;;;-2.01;98.92;96806.56;4980382;28;129925;-76
2022/01/21 06:57:08;;;;;;;5.50;1.65;;;-2.20;99.90;;;-2.08;98.70;96822.13;4978556;28;129844;-75
2022/01/21 06:59:39;;;;;;;4.00;1.48;;;-2.20;99.90;;;-2.03;98.40;96806.09;4980858;28;126327;-75
2022/01/21 07:02:08;;;;;;;6.65;1.63;;;-2.20;99.90;;;-1.96;98.16;96814.47;4981338;28;124542;-75
2022/01/21 07:04:39;;;;;;;4.88;1.70;;;-2.20;99.90;;;-1.92;97.27;96810.09;4982685;28;129834;-76
2022/01/21 07:07:08;;;;;;;1.70;1.10;;;-2.20;99.90;;;-1.93;97.42;96807.75;4980224;28;130500;-75
2022/01/21 07:09:37;;;;;;;2.83;1.30;;;-2.20;99.90;;;-1.90;97.34;96809.81;4976838;28;126361;-75
2022/01/21 07:12:07;;;;;;;4.90;1.30;;;-2.10;99.90;;;-1.84;97.31;96817.41;4980170;28;125932;-76
2022/01/21 07:14:35;;;;;;;3.63;1.48;;;-2.10;99.90;;;-1.86;97.75;96814.25;4979234;28;130074;-76
2022/01/21 07:17:04;;;;;;;4.40;1.60;;;-2.10;99.90;;;-1.87;97.98;96818.00;4979876;28;128845;-75
2022/01/21 07:19:35;;;;;;;4.90;1.98;;;-2.10;99.90;;;-1.77;97.54;96832.19;4977987;28;125714;-75
2022/01/21 07:22:06;;;;;;;3.20;1.40;;;-2.10;99.90;;;-1.89;98.89;96830.00;4980299;28;125295;-75
2022/01/21 07:24:35;;;;;;;4.32;1.40;;;-2.10;99.90;;;-1.84;98.97;96837.88;4983519;28;129632;-75
2022/01/21 07:27:04;;;;;;;3.25;1.50;;;-2.10;99.90;;;-1.79;98.95;96834.34;4985173;28;129890;-75
2022/01/21 07:29:33;;;;;;;5.57;1.70;;;-2.10;99.90;;;-1.73;98.74;96851.75;4981750;28;125396;-76
2022/01/21 07:32:02;;;;;;;2.58;1.48;;;-2.10;99.90;;;-1.75;98.88;96840.66;4982970;28;125554;-75
2022/01/21 07:34:30;;;;;;;4.38;1.50;;;-2.10;99.90;;;-1.81;99.21;96848.72;4981472;28;129594;-76
2022/01/21 07:37:01;;;;;;;3.03;1.23;;;-2.10;99.90;;;-1.66;98.64;96849.50;4981663;28;129537;-76
2022/01/21 07:39:31;;;;;;;2.78;1.58;;;-2.10;99.90;;;-1.68;98.27;96857.00;4980564;28;125819;-76
2022/01/21 07:42:02;;;;;;;4.43;1.50;;;-2.10;99.90;;;-1.59;98.14;96849.91;4980949;28;125883;-76
2022/01/21 07:44:33;;;;;;;3.03;1.50;;;-2.00;99.90;;;-1.54;97.69;96857.78;4981342;28;129937;-75
2022/01/21 07:47:02;;;;;;;1.48;1.20;;;-2.00;99.90;;;-1.50;97.27;96866.72;4981583;28;129461;-76
2022/01/21 07:49:30;;;;;;;4.13;1.40;;;-2.00;99.90;;;-1.58;97.58;96878.06;4981771;28;125766;-76
2022/01/21 07:51:59;;;;;;;3.38;1.40;;;-2.00;99.90;;;-1.53;97.23;96859.34;4983872;28;124830;-76
2022/01/21 07:54:27;;;;;;;3.97;1.77;;;-2.00;99.90;;;-1.53;97.15;96864.66;4981141;28;129869;-76
2022/01/21 07:57:00;;;;;;;3.10;1.38;;;-2.00;99.90;;;-1.60;96.94;96872.25;4982537;28;129617;-76
2022/01/21 07:59:28;;;;;;;4.93;1.35;;;-2.10;99.90;;;-1.57;96.94;96869.00;4982832;28;125653;-75
2022/01/21 08:01:59;;;;;;;2.28;1.30;;;-2.00;99.90;;;-1.55;97.52;96880.13;4981294;28;126084;-76
2022/01/21 08:04:28;;;;;;;3.30;1.33;;;-2.00;99.90;;;-1.36;96.63;96884.56;4983061;28;130132;-76
2022/01/21 08:06:56;;;;;;;2.78;1.50;;;-1.90;99.90;;;-1.32;96.09;96881.00;4983043;28;128898;-76
2022/01/21 08:09:25;;;;;;;3.20;1.60;;;-1.90;99.90;;;-1.22;95.41;96884.53;4982432;28;126142;-76
2022/01/21 08:11:54;;;;;;;3.20;1.77;;;-1.90;99.90;;;-1.26;95.36;96900.31;4981383;28;125727;-76
2022/01/21 08:14:24;;;;;;;3.22;1.33;;;-1.90;99.90;;;-1.27;94.94;96894.19;4982222;28;130382;-76
2022/01/21 08:16:54;;;;;;;2.35;1.38;;;-1.90;99.90;;;-1.27;95.22;96890.75;4983131;28;129392;-76
2022/01/21 08:19:24;;;;;;;3.05;1.55;;;-1.90;99.90;;;-1.21;95.04;96886.91;4980615;28;125706;-76
2022/01/21 08:21:54;;;;;;;5.95;2.72;;;-1.90;99.90;;;-1.06;95.25;96895.66;4981211;28;125405;-75
2022/01/21 08:24:22;;;;;;;7.70;3.35;;;-1.80;99.90;;;-1.11;94.57;96908.00;4980437;28;129881;-76
2022/01/21 08:26:53;;;;;;;9.10;3.78;;;-1.80;99.90;;;-1.09;94.51;96900.50;4982455;28;130339;-76
2022/01/21 08:29:25;;;;;;;7.25;3.03;;;-1.80;99.90;;;-1.04;94.96;96912.09;4980562;28;125582;-75
2022/01/21 08:31:54;;;;;;;10.48;4.65;;;-1.80;99.90;;;-1.13;95.07;96899.50;4980379;28;125289;-75
2022/01/21 08:34:22;;;;;;;11.07;4.60;;;-1.80;99.90;;;-1.15;94.83;96895.59;4979413;28;130034;-75
2022/01/21 08:36:54;;;;;;;15.13;5.80;;;-1.80;99.90;;;-1.25;95.48;96899.22;4982467;28;128593;-75
2022/01/21 08:39:22;;;;;;;10.95;4.70;;;-1.80;99.90;;;-1.26;95.21;96905.66;4980139;28;126631;-75
2022/01/21 08:41:51;;;;;;;12.98;5.22;;;-1.90;99.40;;;-1.00;94.81;96908.53;4980872;28;125750;-75
2022/01/21 08:44:20;;;;;;;6.88;3.28;;;-1.80;99.90;;;-0.92;94.09;96928.34;4980119;28;129936;-76
2022/01/21 08:46:50;;;;;;;9.35;3.55;;;-1.70;99.90;;;-0.78;94.44;96905.16;4980427;28;129720;-75
2022/01/21 08:49:21;;;;;;;8.63;3.80;;;-1.60;99.90;;;-0.86;95.17;96918.38;4981768;28;126761;-75
2022/01/21 08:51:52;;;;;;;7.38;2.65;;;-1.70;99.90;;;-0.83;95.67;96907.91;4981466;28;126202;-76
2022/01/21 08:54:22;;;;;;;3.58;2.05;;;-1.70;99.90;;;-0.78;95.34;96921.13;4980189;28;129576;-75
2022/01/21 08:56:53;;;;;;;4.28;2.13;;;-1.70;99.90;;;-0.76;95.20;96921.59;4983407;28;129715;-76
2022/01/21 08:59:22;;;;;;;3.13;1.60;;;-1.60;99.90;;;-0.71;95.43;96930.59;4988163;28;124717;-74
2022/01/21 09:01:52;;;;;;;2.65;1.63;;;-1.60;99.90;;;-0.70;95.55;96932.16;4980088;28;125302;-76
2022/01/21 09:04:22;;;;;;;5.07;1.38;;;-1.60;99.90;;;-0.73;95.59;96929.00;4980308;28;129721;-77
2022/01/21 09:06:51;;;;;;;4.05;1.73;;;-1.60;99.90;;;-0.81;95.83;96977.66;4981015;28;130125;-79
2022/01/21 09:09:22;;;;;;;3.45;1.70;;;-1.70;99.90;;;-0.80;96.61;96954.47;4983503;28;125843;-78
2022/01/21 09:11:59;;;;;;;7.95;2.05;;;-1.60;99.90;;;-0.80;96.30;96939.28;4979166;28;125038;-77
2022/01/21 09:14:28;;;;;;;4.32;2.20;;;-1.60;99.90;;;-0.76;96.12;96940.25;4981328;28;129653;-76
2022/01/21 09:16:59;;;;;;;3.42;1.40;;;-1.60;99.90;;;-0.55;95.66;96942.47;4980136;28;129805;-75
2022/01/21 09:19:28;;;;;;;4.47;1.70;;;-1.50;99.90;;;-0.53;93.83;96952.81;4983015;28;125603;-77
2022/01/21 09:21:56;;;;;;;3.25;1.42;;;-1.50;99.90;;;-0.62;92.68;96926.13;4981532;28;125332;-75
2022/01/21 09:24:25;;;;;;;3.45;1.10;;;-1.60;99.90;;;-0.73;92.44;96950.31;4982365;28;129573;-75
2022/01/21 09:26:56;;;;;;;2.10;1.38;;;-1.60;99.90;;;-0.63;91.07;96959.16;4980206;28;129491;-76
2022/01/21 09:29:24;;;;;;;3.33;1.60;;;-1.60;99.90;;;-0.60;91.11;96930.03;4981951;28;125440;-76
2022/01/21 09:31:53;;;;;;;5.88;2.47;;;-1.60;99.90;;;-0.57;91.33;96948.09;4998497;28;124273;-75
2022/01/21 09:34:34;;;;;;;2.10;1.10;;;-1.60;99.90;;;-0.61;91.41;96956.97;4965140;28;129351;-76
2022/01/21 09:37:03;;;;;;;3.88;1.33;;;-1.60;99.90;;;-0.53;91.16;96979.47;4980125;28;129703;-80
2022/01/21 09:39:33;;;;;;;2.53;1.50;;;-1.60;99.90;;;-0.71;91.60;96962.56;4979643;28;126488;-77
2022/01/21 09:42:03;;;;;;;2.33;1.40;;;-1.60;99.90;;;-0.58;92.08;96956.38;4982206;28;126073;-75
2022/01/21 09:44:33;;;;;;;1.80;1.20;;;-1.60;99.90;;;-0.70;92.89;96972.09;4982296;28;129546;-78
2022/01/21 09:47:04;;;;;;;4.72;1.67;;;-1.60;99.90;;;-0.52;92.61;96971.16;4980734;28;129779;-77
2022/01/21 09:49:34;;;;;;;3.72;1.80;;;-1.50;99.90;;;-0.39;92.00;96970.34;4981221;28;127250;-76
2022/01/21 09:52:06;;;;;;;3.47;1.48;;;-1.40;99.90;;;-0.40;90.75;96962.66;4979993;28;125426;-76
2022/01/21 09:54:37;;;;;;;4.38;1.63;;;-1.50;99.90;;;-0.33;90.97;96968.34;4979733;28;130237;-75
2022/01/21 09:57:08;;;;;;;3.13;1.50;;;-1.40;99.90;;;-0.28;90.40;96981.56;4980118;28;129470;-76
2022/01/21 09:59:39;;;;;;;4.00;1.65;;;-1.40;99.90;;;-0.05;89.91;96993.03;4979565;28;126440;-76
2022/01/21 10:02:10;;;;;;;4.78;1.70;;;-1.30;99.90;;;-0.23;90.48;97001.97;4978290;28;126489;-76
2022/01/21 10:04:46;;;;;;;3.42;1.60;;;-1.40;99.90;;;-0.21;89.84;96991.78;4980850;28;129444;-76
2022/01/21 10:07:20;;;;;;;4.43;2.38;;;-1.40;99.90;;;-0.17;89.78;96984.78;4979317;28;129615;-79
2022/01/21 10:09:53;;;;;;;5.60;1.65;;;-1.30;99.90;;;-0.15;89.38;96984.47;4979371;28;125519;-76
2022/01/21 10:12:22;;;;;;;5.20;2.00;;;-1.40;99.90;;;-0.11;89.77;97004.09;4979096;28;125449;-74
2022/01/21 10:14:51;;;;;;;3.67;1.50;;;-1.30;99.90;;;0.00;88.92;96986.78;4981216;28;130294;-76
2022/01/21 10:17:22;;;;;;;2.40;1.38;;;-1.30;99.90;;;-0.04;88.67;96999.91;4979872;28;129522;-76
2022/01/21 10:19:53;;;;;;;2.75;1.42;;;-1.30;99.90;;;-0.38;89.22;97009.22;4979898;28;126163;-78
2022/01/21 10:22:26;;;;;;;3.33;1.67;;;-1.40;99.90;;;-0.15;89.95;96993.25;4979384;28;125051;-75
2022/01/21 10:24:59;;;;;;;3.38;1.63;;;-1.40;99.90;;;-0.11;89.40;96996.91;4980420;28;130048;-76
2022/01/21 10:27:30;;;;;;;3.58;1.52;;;-1.40;99.90;;;-0.14;89.24;96997.50;4980829;28;130583;-75
2022/01/21 10:30:00;;;;;;;2.15;1.40;;;-1.40;99.90;;;-0.19;89.26;97008.28;4979204;28;126734;-76
2022/01/21 10:32:37;;;;;;;5.70;2.10;;;-1.40;99.90;;;-0.12;89.62;96995.31;4978517;28;125937;-75
2022/01/21 10:35:21;;;;;;;3.13;1.73;;;-1.30;99.90;;;0.06;88.62;97033.53;4980272;28;129742;-75
2022/01/21 10:37:56;;;;;;;4.03;1.50;;;-1.30;99.90;;;0.11;88.42;97020.09;4979488;28;129427;-75
2022/01/21 10:40:35;;;;;;;3.92;1.60;;;-1.20;99.90;;;0.08;88.83;97011.91;4976733;28;126320;-75
2022/01/21 10:43:15;;;;;;;4.72;1.80;;;-1.30;99.90;;;-0.10;89.68;97030.44;4979310;28;125628;-75
2022/01/21 10:45:57;;;;;;;4.40;1.90;;;-1.30;99.90;;;-0.03;89.85;97022.84;4979773;28;128936;-75
2022/01/21 10:48:29;;;;;;;3.15;1.63;;;-1.30;99.90;;;0.07;88.48;97018.34;4978419;28;129853;-75
2022/01/21 10:51:23;;;;;;;4.25;1.90;;;-1.20;99.90;;;0.04;89.03;97029.63;4996252;28;125571;-76
2022/01/21 10:57:11;;;;;;;4.57;2.08;;;-1.20;99.90;;;0.13;87.50;97022.47;5105668;27;102550;-76
2022/01/21 11:00:03;;;;;;;5.07;2.20;;;-1.20;99.90;;;0.19;86.02;97026.59;5080805;27;113909;-75
2022/01/21 11:02:40;;;;;;;3.92;1.95;;;-1.20;99.90;;;0.21;86.80;97027.06;5078805;27;129803;-75
2022/01/21 11:05:15;;;;;;;3.65;1.50;;;-1.20;99.90;;;0.15;86.27;97041.63;5082675;27;128626;-75
2022/01/21 11:07:59;;;;;;;3.17;1.50;;;-1.20;99.90;;;0.26;85.99;97032.28;5084829;27;117962;-75
2022/01/21 11:10:52;;;;;;;6.03;1.55;;;-1.20;99.90;;;0.10;85.64;97042.53;5081438;27;113405;-75
2022/01/21 11:13:40;;;;;;;3.20;1.50;;;-1.30;99.90;;;0.05;86.86;97057.84;5061563;27;129718;-75
2022/01/21 11:16:16;;;;;;;3.20;1.58;;;-1.30;99.90;;;0.10;86.40;97049.75;5080843;27;129691;-75
2022/01/21 11:19:07;;;;;;;3.67;1.38;;;-1.20;99.90;;;-0.03;85.90;97073.50;5083690;27;117503;-77